Time;durP1;ratioP1;P1;durP2;ratioP2;P2;SDS_P1;SDS_P2;PMS_P1;PMS_P2;Temp;Humidity;BMP_temperature;BMP_pressure;BME280_temperature;BME280_humidity;BME280_pressure;Samples;Min_cycle;Max_cycle;Signal;HPM_P1;HPM_P2
2023/09/29 00:02:05;;;;;;;11.45;8.23;;;;;;;17.47;100.00;101150.09;5030084;28;20049;-69
2023/09/29 00:04:30;;;;;;;14.63;8.52;;;;;;;17.49;100.00;101160.47;5029376;28;20075;-69
2023/09/29 00:06:55;;;;;;;14.82;8.52;;;;;;;17.48;100.00;101159.66;5037211;28;20825;-70
2023/09/29 00:09:22;;;;;;;11.07;7.93;;;;;;;17.49;100.00;101152.63;5034400;28;20366;-70
2023/09/29 00:11:48;;;;;;;11.57;7.60;;;;;;;17.50;100.00;101154.34;5034278;28;20037;-70
2023/09/29 00:14:13;;;;;;;10.00;7.10;;;;;;;17.51;100.00;101158.69;5039441;28;20025;-69
2023/09/29 00:16:39;;;;;;;10.90;7.05;;;;;;;17.52;100.00;101170.84;5031102;28;20507;-69
2023/09/29 00:19:04;;;;;;;10.68;6.95;;;;;;;17.53;100.00;101165.59;5032844;28;20477;-70
2023/09/29 00:21:30;;;;;;;10.38;7.43;;;;;;;17.55;100.00;101162.91;5030087;28;20037;-70
2023/09/29 00:23:55;;;;;;;8.85;7.13;;;;;;;17.55;100.00;101166.38;5027801;28;20030;-70
2023/09/29 00:26:20;;;;;;;9.00;6.85;;;;;;;17.55;100.00;101160.28;5034355;28;20030;-70
2023/09/29 00:28:46;;;;;;;13.30;7.10;;;;;;;17.57;100.00;101158.50;5028568;28;20037;-70
2023/09/29 00:31:15;;;;;;;8.75;6.40;;;;;;;17.56;100.00;101164.63;5039385;28;20029;-70
2023/09/29 00:33:40;;;;;;;8.30;6.95;;;;;;;17.54;100.00;101174.28;5023651;28;20451;-69
2023/09/29 00:36:06;;;;;;;11.32;6.85;;;;;;;17.52;100.00;101173.44;5030402;28;20100;-69
2023/09/29 00:38:33;;;;;;;11.30;7.40;;;;;;;17.53;100.00;101176.03;5030437;28;20041;-70
2023/09/29 00:40:58;;;;;;;11.25;7.38;;;;;;;17.53;100.00;101162.09;5029116;28;20030;-70
2023/09/29 00:43:24;;;;;;;12.65;7.25;;;;;;;17.53;100.00;101160.34;5030148;28;20561;-70
2023/09/29 00:45:50;;;;;;;11.55;6.75;;;;;;;17.53;100.00;101159.50;5028889;28;20044;-70
2023/09/29 00:48:16;;;;;;;9.20;5.78;;;;;;;17.51;100.00;101153.47;5030102;28;20491;-70
2023/09/29 00:50:44;;;;;;;11.80;7.13;;;;;;;17.51;100.00;101153.47;5033326;28;20036;-70
2023/09/29 00:53:13;;;;;;;9.18;6.18;;;;;;;17.50;100.00;101155.22;5030733;28;20034;-70
2023/09/29 00:55:44;;;;;;;9.23;6.05;;;;;;;17.49;100.00;101157.88;5027806;28;20103;-70
2023/09/29 00:58:12;;;;;;;9.07;6.00;;;;;;;17.49;100.00;101153.50;5026783;28;20037;-69
2023/09/29 01:00:40;;;;;;;9.75;6.43;;;;;;;17.49;100.00;101155.25;5033404;28;20629;-62
2023/09/29 01:03:12;;;;;;;9.75;6.72;;;;;;;17.48;100.00;101153.56;5027749;28;20049;-62
2023/09/29 01:05:46;;;;;;;10.57;6.65;;;;;;;17.48;100.00;101154.41;5028086;28;20207;-62
2023/09/29 01:08:17;;;;;;;9.33;6.53;;;;;;;17.48;100.00;101151.81;5029098;28;20026;-63
2023/09/29 01:10:42;;;;;;;9.38;6.60;;;;;;;17.49;100.00;101144.78;5025350;28;20148;-63
2023/09/29 01:13:08;;;;;;;8.40;6.35;;;;;;;17.48;100.00;101143.09;5028674;28;20748;-62
2023/09/29 01:15:36;;;;;;;11.00;6.55;;;;;;;17.48;100.00;101146.56;5027365;28;20119;-62
2023/09/29 01:18:01;;;;;;;9.27;6.03;;;;;;;17.48;100.00;101146.56;5025899;28;20036;-62
2023/09/29 01:20:30;;;;;;;10.48;6.50;;;;;;;17.49;100.00;101143.03;5026890;28;20033;-62
2023/09/29 01:22:57;;;;;;;10.77;6.60;;;;;;;17.48;100.00;101140.50;5030410;28;20107;-62
2023/09/29 01:25:22;;;;;;;9.07;6.55;;;;;;;17.49;100.00;101136.94;5029558;28;20285;-62
2023/09/29 01:27:49;;;;;;;12.10;7.32;;;;;;;17.48;100.00;101132.66;5028102;28;20431;-62
2023/09/29 01:30:16;;;;;;;9.90;6.00;;;;;;;17.49;100.00;101124.75;5028871;28;20097;-62
2023/09/29 01:32:42;;;;;;;7.45;5.57;;;;;;;17.49;100.00;101118.66;5026742;28;20080;-62
2023/09/29 01:35:10;;;;;;;7.63;5.70;;;;;;;17.48;100.00;101112.59;5027466;28;20083;-70
2023/09/29 01:37:36;;;;;;;10.85;6.63;;;;;;;17.49;100.00;101118.66;5028432;28;20030;-70
2023/09/29 01:40:01;;;;;;;7.03;5.80;;;;;;;17.50;100.00;101126.47;5027686;28;20041;-70
2023/09/29 01:42:27;;;;;;;9.07;6.07;;;;;;;17.50;100.00;101123.00;5030526;28;20076;-70
2023/09/29 01:44:52;;;;;;;7.80;6.40;;;;;;;17.51;100.00;101120.34;5030875;28;20033;-70
2023/09/29 01:47:17;;;;;;;10.50;6.78;;;;;;;17.53;100.00;101117.66;5031908;28;20114;-70
2023/09/29 01:49:43;;;;;;;9.90;6.20;;;;;;;17.53;100.00;101115.91;5036155;28;20099;-69
2023/09/29 01:52:08;;;;;;;8.40;6.10;;;;;;;17.56;100.00;101122.81;5036722;28;20034;-70
2023/09/29 01:54:36;;;;;;;8.73;5.70;;;;;;;17.57;100.00;101114.94;5040388;28;20037;-70
2023/09/29 01:57:01;;;;;;;11.13;6.85;;;;;;;17.58;100.00;101110.53;5035701;28;20160;-70
2023/09/29 01:59:28;;;;;;;14.45;6.35;;;;;;;17.58;100.00;101107.91;5032459;28;20813;-70
2023/09/29 02:01:53;;;;;;;10.07;6.38;;;;;;;17.57;100.00;101112.31;5030899;28;20026;-70
2023/09/29 02:04:19;;;;;;;8.38;6.40;;;;;;;17.55;100.00;101108.88;5042457;28;20033;-70
2023/09/29 02:06:44;;;;;;;9.13;6.13;;;;;;;17.55;100.00;101110.63;5034234;28;20026;-70
2023/09/29 02:09:10;;;;;;;12.63;6.22;;;;;;;17.54;100.00;101115.03;5035547;28;20144;-70
2023/09/29 02:11:39;;;;;;;6.85;5.53;;;;;;;17.55;100.00;101111.47;5032597;28;20037;-70
2023/09/29 02:14:05;;;;;;;9.65;5.75;;;;;;;17.55;100.00;101113.25;5031937;28;20049;-70
2023/09/29 02:16:31;;;;;;;9.13;6.00;;;;;;;17.53;100.00;101110.69;5032465;28;20037;-70
2023/09/29 02:18:56;;;;;;;7.85;5.50;;;;;;;17.53;100.00;101113.31;5031573;28;20033;-70
2023/09/29 02:21:22;;;;;;;6.55;5.35;;;;;;;17.52;100.00;101106.34;5043177;28;20035;-69
2023/09/29 02:23:48;;;;;;;6.60;4.78;;;;;;;17.51;100.00;101101.19;5031250;28;20033;-71
2023/09/29 02:26:14;;;;;;;8.73;4.70;;;;;;;17.51;100.00;101101.19;5031430;28;20633;-70
2023/09/29 02:28:40;;;;;;;6.63;4.93;;;;;;;17.50;100.00;101096.84;5025187;28;20106;-70
2023/09/29 02:31:11;;;;;;;8.13;5.53;;;;;;;17.49;100.00;101098.59;5032115;28;20038;-70
2023/09/29 02:33:38;;;;;;;8.15;6.07;;;;;;;17.47;100.00;101092.59;5030344;28;20025;-67
2023/09/29 02:36:04;;;;;;;7.03;5.78;;;;;;;17.45;100.00;101091.78;5031558;28;20033;-69
2023/09/29 02:38:30;;;;;;;5.97;5.10;;;;;;;17.43;100.00;101088.34;5036889;28;20041;-69
2023/09/29 02:40:55;;;;;;;7.18;5.15;;;;;;;17.42;100.00;101095.31;5031388;28;20174;-69
2023/09/29 02:43:20;;;;;;;7.95;6.15;;;;;;;17.49;100.00;101093.38;5032573;28;20778;-69
2023/09/29 02:45:46;;;;;;;7.68;6.07;;;;;;;17.55;100.00;101087.09;5028211;28;20549;-68
2023/09/29 02:48:11;;;;;;;8.50;6.10;;;;;;;17.60;100.00;101078.22;5036890;28;20017;-69
2023/09/29 02:50:37;;;;;;;13.02;6.75;;;;;;;17.64;100.00;101079.81;5031802;28;20087;-69
2023/09/29 02:53:05;;;;;;;11.90;6.47;;;;;;;17.67;100.00;101081.47;5028629;28;20038;-69
2023/09/29 02:55:31;;;;;;;8.55;7.28;;;;;;;17.68;100.00;101075.34;5034189;28;20044;-69
2023/09/29 02:57:56;;;;;;;8.93;6.40;;;;;;;17.70;100.00;101078.78;5030661;28;20022;-70
2023/09/29 03:00:23;;;;;;;8.48;6.07;;;;;;;17.72;100.00;101075.19;5032765;28;20496;-69
2023/09/29 03:02:51;;;;;;;9.57;6.10;;;;;;;17.73;100.00;101076.06;5028164;28;20041;-70
2023/09/29 03:05:18;;;;;;;10.18;5.78;;;;;;;17.71;100.00;101078.75;5039065;28;20029;-69
2023/09/29 03:07:43;;;;;;;11.40;6.07;;;;;;;17.71;100.00;101081.34;5031603;28;20478;-69
2023/09/29 03:10:11;;;;;;;12.60;6.30;;;;;;;17.73;100.00;101078.66;5036990;28;20034;-69
2023/09/29 03:12:36;;;;;;;9.18;5.95;;;;;;;17.68;100.00;101077.97;5038144;28;20028;-65
2023/09/29 03:15:03;;;;;;;8.02;5.75;;;;;;;17.65;100.00;101080.69;5032336;28;20048;-65
2023/09/29 03:17:30;;;;;;;7.13;5.65;;;;;;;17.66;100.00;101077.19;5029728;28;20057;-65
2023/09/29 03:19:55;;;;;;;11.85;6.40;;;;;;;17.69;100.00;101072.69;5030426;28;20048;-60
2023/09/29 03:22:21;;;;;;;9.10;6.45;;;;;;;17.69;100.00;101072.69;5032687;28;20047;-60
2023/09/29 03:24:46;;;;;;;9.73;6.68;;;;;;;17.71;100.00;101072.66;5028991;28;20044;-60
2023/09/29 03:27:12;;;;;;;10.07;5.78;;;;;;;17.73;100.00;101070.81;5032257;28;20117;-60
2023/09/29 03:29:37;;;;;;;16.17;6.18;;;;;;;17.77;100.00;101060.22;5028464;28;20037;-60
2023/09/29 03:32:03;;;;;;;9.70;6.03;;;;;;;17.80;100.00;101061.88;5029908;28;20503;-60
2023/09/29 03:34:28;;;;;;;9.40;6.43;;;;;;;17.85;100.00;101066.09;5030979;28;20037;-60
2023/09/29 03:36:53;;;;;;;12.10;6.57;;;;;;;17.86;100.00;101065.19;5030061;28;20446;-60
2023/09/29 03:39:19;;;;;;;9.93;5.97;;;;;;;17.85;100.00;101063.47;5029877;28;20052;-60
2023/09/29 03:41:45;;;;;;;9.13;5.93;;;;;;;17.84;100.00;101048.69;5028940;28;20037;-60
2023/09/29 03:44:12;;;;;;;9.70;6.13;;;;;;;17.81;100.00;101051.34;5027982;28;20034;-60
2023/09/29 03:46:38;;;;;;;8.27;5.93;;;;;;;17.80;100.00;101060.13;5033872;28;20056;-60
2023/09/29 03:49:04;;;;;;;10.20;6.82;;;;;;;17.82;100.00;101057.44;5031885;28;20029;-60
2023/09/29 03:51:30;;;;;;;7.15;5.25;;;;;;;17.80;100.00;101052.28;5029693;28;20033;-60
2023/09/29 03:53:56;;;;;;;9.05;5.88;;;;;;;17.80;100.00;101048.81;5028604;28;20088;-60
2023/09/29 03:56:25;;;;;;;10.10;5.78;;;;;;;17.78;100.00;101043.63;5031708;28;20047;-60
2023/09/29 03:58:51;;;;;;;5.90;5.00;;;;;;;17.78;100.00;101048.03;5032228;28;20029;-60
2023/09/29 04:01:17;;;;;;;9.68;5.68;;;;;;;17.78;100.00;101043.63;5034084;28;20037;-60
2023/09/29 04:03:42;;;;;;;8.20;5.72;;;;;;;17.82;100.00;101050.47;5029245;28;20055;-61
2023/09/29 04:06:08;;;;;;;8.25;4.97;;;;;;;17.89;100.00;101040.69;5030141;28;20123;-60
2023/09/29 04:08:34;;;;;;;8.15;4.82;;;;;;;18.00;100.00;101037.69;5039089;28;20086;-60
2023/09/29 04:10:59;;;;;;;7.95;5.07;;;;;;;18.12;100.00;101035.53;5033551;28;20454;-60
2023/09/29 04:13:25;;;;;;;10.85;4.90;;;;;;;18.20;100.00;101045.69;5028730;28;20112;-60
2023/09/29 04:15:51;;;;;;;7.47;4.50;;;;;;;18.25;100.00;101049.88;5029291;28;20079;-60
2023/09/29 04:18:16;;;;;;;7.72;4.32;;;;;;;18.27;100.00;101039.34;5039494;28;20017;-60
2023/09/29 04:20:42;;;;;;;7.20;4.90;;;;;;;18.31;100.00;101046.19;5028985;28;20037;-60
2023/09/29 04:23:07;;;;;;;9.70;4.38;;;;;;;18.33;100.00;101060.06;5029436;28;20029;-60
2023/09/29 04:25:33;;;;;;;8.75;4.97;;;;;;;18.33;100.00;101050.47;5028978;28;20048;-60
2023/09/29 04:27:58;;;;;;;7.88;4.80;;;;;;;18.43;100.00;101038.75;5029158;28;20108;-60
2023/09/29 04:30:24;;;;;;;8.73;5.05;;;;;;;18.42;100.00;101034.44;5031668;28;20107;-60
2023/09/29 04:32:49;;;;;;;7.28;5.07;;;;;;;18.40;100.00;101023.16;5035161;28;20040;-60
2023/09/29 04:35:15;;;;;;;7.90;4.65;;;;;;;18.39;100.00;101028.44;5035537;28;20415;-60
2023/09/29 04:37:41;;;;;;;8.63;5.50;;;;;;;18.40;100.00;101020.53;5029305;28;20041;-60
2023/09/29 04:40:07;;;;;;;10.55;5.38;;;;;;;18.39;100.00;101017.97;5029891;28;20567;-60
2023/09/29 04:42:33;;;;;;;7.47;4.50;;;;;;;18.37;100.00;101011.97;5030360;28;20233;-60
2023/09/29 04:44:59;;;;;;;8.77;5.32;;;;;;;18.36;100.00;101003.25;5032022;28;20128;-60
2023/09/29 04:47:24;;;;;;;6.88;5.30;;;;;;;18.40;100.00;101012.66;5028455;28;20148;-61
2023/09/29 04:49:50;;;;;;;8.65;5.35;;;;;;;18.39;100.00;100999.66;5031700;28;20065;-61
2023/09/29 04:52:16;;;;;;;9.77;5.15;;;;;;;18.41;100.00;100990.84;5028917;28;20037;-61
2023/09/29 04:54:43;;;;;;;11.95;5.50;;;;;;;18.46;100.00;100988.06;5022559;28;20551;-61
2023/09/29 04:57:09;;;;;;;6.43;4.90;;;;;;;18.45;100.00;100995.06;5027117;28;20033;-60
2023/09/29 04:59:34;;;;;;;8.70;4.95;;;;;;;18.44;100.00;100998.56;5032739;28;20597;-61
2023/09/29 05:02:00;;;;;;;10.77;5.35;;;;;;;18.46;100.00;101004.59;5028179;28;20527;-60
2023/09/29 05:04:25;;;;;;;8.07;5.03;;;;;;;18.46;100.00;101009.84;5029095;28;20078;-64
2023/09/29 05:06:51;;;;;;;9.50;5.47;;;;;;;18.48;100.00;101004.56;5030913;28;20084;-64
2023/09/29 05:09:18;;;;;;;7.50;5.15;;;;;;;18.46;100.00;100998.53;5025537;28;20033;-65
2023/09/29 05:11:43;;;;;;;7.93;4.90;;;;;;;18.42;100.00;100996.94;5027356;28;20037;-64
2023/09/29 05:14:09;;;;;;;7.90;4.88;;;;;;;18.41;100.00;101003.91;5029626;28;20397;-62
2023/09/29 05:16:34;;;;;;;9.45;4.90;;;;;;;18.39;100.00;101004.88;5027299;28;20530;-62
2023/09/29 05:19:00;;;;;;;7.18;4.78;;;;;;;18.37;100.00;101011.97;5029158;28;20052;-62
2023/09/29 05:21:26;;;;;;;9.43;5.28;;;;;;;18.38;100.00;101008.41;5025589;28;20029;-63
2023/09/29 05:23:52;;;;;;;11.80;5.80;;;;;;;18.37;100.00;101001.50;5028191;28;20030;-62
2023/09/29 05:26:17;;;;;;;6.80;5.07;;;;;;;18.41;100.00;101003.91;5029214;28;20033;-62
2023/09/29 05:28:43;;;;;;;8.50;5.10;;;;;;;18.36;100.00;101008.47;5028974;28;20120;-62
2023/09/29 05:31:09;;;;;;;7.75;4.60;;;;;;;18.34;100.00;101010.31;5035301;28;20518;-63
2023/09/29 05:33:35;;;;;;;7.22;4.80;;;;;;;18.37;100.00;101014.56;5032558;28;20040;-62
2023/09/29 05:36:00;;;;;;;6.65;4.57;;;;;;;18.33;100.00;101010.34;5026298;28;20033;-63
2023/09/29 05:38:26;;;;;;;10.13;4.90;;;;;;;18.29;100.00;101020.06;5032300;28;20040;-62
2023/09/29 05:40:52;;;;;;;7.10;4.15;;;;;;;18.27;100.00;101026.28;5028235;28;20395;-62
2023/09/29 05:43:18;;;;;;;11.55;5.05;;;;;;;18.23;100.00;101020.28;5025078;28;20595;-62
2023/09/29 05:45:47;;;;;;;8.57;4.90;;;;;;;18.17;100.00;101009.19;5023635;28;20033;-62
2023/09/29 05:48:12;;;;;;;8.05;5.40;;;;;;;18.14;100.00;101001.44;5030491;28;20067;-62
2023/09/29 05:50:38;;;;;;;9.65;5.00;;;;;;;18.09;100.00;100987.69;5025857;28;20041;-62
2023/09/29 05:53:04;;;;;;;7.50;5.03;;;;;;;18.08;100.00;100986.81;5028400;28;20396;-70
2023/09/29 05:55:30;;;;;;;8.00;4.47;;;;;;;18.05;100.00;100986.94;5027524;28;20038;-70
2023/09/29 05:57:56;;;;;;;6.90;5.13;;;;;;;18.06;100.00;100991.25;5032204;28;20021;-70
2023/09/29 06:00:21;;;;;;;6.30;4.85;;;;;;;18.06;100.00;100986.03;5029208;28;20028;-70
2023/09/29 06:02:47;;;;;;;10.68;4.68;;;;;;;18.08;100.00;100978.16;5024468;28;20037;-69
2023/09/29 06:05:13;;;;;;;8.52;5.00;;;;;;;18.08;100.00;100988.59;5028505;28;20029;-69
2023/09/29 06:07:39;;;;;;;7.43;4.78;;;;;;;18.09;100.00;100991.16;5028839;28;20032;-70
2023/09/29 06:10:06;;;;;;;7.20;4.88;;;;;;;18.13;100.00;100997.13;5027127;28;20030;-70
2023/09/29 06:12:32;;;;;;;7.25;4.38;;;;;;;18.21;100.00;100998.56;5029075;28;20079;-69
2023/09/29 06:14:57;;;;;;;8.32;4.40;;;;;;;18.33;100.00;100998.13;5028642;28;20676;-70
2023/09/29 06:17:23;;;;;;;9.77;4.90;;;;;;;18.45;100.00;100995.06;5035624;28;20032;-69
2023/09/29 06:19:49;;;;;;;8.30;4.38;;;;;;;18.61;100.00;100992.69;5035377;28;20040;-70
2023/09/29 06:22:14;;;;;;;5.68;3.45;;;;;;;18.77;100.00;100985.13;5033942;28;20039;-65
2023/09/29 06:24:40;;;;;;;6.75;4.10;;;;;;;18.94;100.00;100994.06;5031913;28;20040;-64
2023/09/29 06:27:05;;;;;;;8.75;4.40;;;;;;;19.12;100.00;100978.56;5029226;28;20112;-65
2023/09/29 06:29:30;;;;;;;7.30;4.00;;;;;;;19.29;100.00;100983.97;5030408;28;20470;-65
2023/09/29 06:31:56;;;;;;;6.25;4.10;;;;;;;19.43;100.00;100973.75;5041111;28;20025;-64
2023/09/29 06:34:21;;;;;;;6.68;3.83;;;;;;;19.56;99.19;100970.53;5032060;28;20056;-64
2023/09/29 06:36:47;;;;;;;8.20;4.20;;;;;;;19.69;97.69;100975.28;5031908;28;20034;-66
2023/09/29 06:39:12;;;;;;;5.90;3.88;;;;;;;19.75;97.24;100972.41;5032243;28;20041;-65
2023/09/29 06:41:38;;;;;;;7.68;4.22;;;;;;;19.79;97.11;100977.50;5031974;28;20033;-65
2023/09/29 06:44:04;;;;;;;7.35;3.65;;;;;;;19.82;96.52;100984.38;5030750;28;20068;-65
2023/09/29 06:46:29;;;;;;;8.98;3.70;;;;;;;19.84;96.21;100980.75;5035608;28;20056;-69
2023/09/29 06:48:54;;;;;;;6.75;3.70;;;;;;;19.88;96.12;100986.75;5030501;28;20033;-69
2023/09/29 06:51:19;;;;;;;7.38;3.60;;;;;;;19.93;95.67;100976.88;5038767;28;20116;-69
2023/09/29 06:53:45;;;;;;;9.98;4.28;;;;;;;19.98;95.74;100982.78;5029233;28;20080;-62
2023/09/29 06:56:10;;;;;;;6.43;3.58;;;;;;;19.99;95.20;100993.22;5033049;28;20129;-62
2023/09/29 06:58:36;;;;;;;7.25;3.58;;;;;;;19.98;95.19;100988.03;5034075;28;20033;-62
2023/09/29 07:01:02;;;;;;;7.20;3.60;;;;;;;19.95;94.97;100982.91;5027185;28;20029;-62
2023/09/29 07:03:29;;;;;;;6.78;3.58;;;;;;;19.91;95.08;100986.59;5031539;28;20041;-62
2023/09/29 07:05:56;;;;;;;7.00;3.40;;;;;;;19.90;95.52;100987.50;5041907;28;20033;-62
2023/09/29 07:08:21;;;;;;;8.07;3.40;;;;;;;19.90;95.41;100984.88;5031944;28;20033;-62
2023/09/29 07:10:46;;;;;;;8.95;3.90;;;;;;;19.95;95.13;100990.78;5031026;28;20113;-62
2023/09/29 07:13:12;;;;;;;7.30;3.38;;;;;;;20.00;94.40;100987.06;5031486;28;20060;-63
2023/09/29 07:15:37;;;;;;;6.13;3.58;;;;;;;20.04;94.19;100983.38;5032251;28;20033;-62
2023/09/29 07:18:02;;;;;;;6.78;3.97;;;;;;;20.09;93.64;100976.16;5028630;28;20091;-62
2023/09/29 07:20:29;;;;;;;7.68;3.70;;;;;;;20.16;93.76;100982.84;5032974;28;20565;-62
2023/09/29 07:22:56;;;;;;;10.50;3.83;;;;;;;20.25;93.21;100976.31;5028695;28;20128;-61
2023/09/29 07:25:22;;;;;;;5.85;3.80;;;;;;;20.33;93.04;100981.25;5030068;28;20120;-61
2023/09/29 07:27:48;;;;;;;8.60;4.07;;;;;;;20.41;91.99;100977.34;5030809;28;20029;-61
2023/09/29 07:30:14;;;;;;;6.40;3.63;;;;;;;20.50;91.70;100979.56;5029982;28;20029;-61
2023/09/29 07:32:41;;;;;;;5.25;3.42;;;;;;;20.55;91.87;100987.22;5032017;28;20087;-61
2023/09/29 07:35:07;;;;;;;6.47;3.63;;;;;;;20.60;91.34;100983.44;5031632;28;20373;-61
2023/09/29 07:37:33;;;;;;;9.57;3.58;;;;;;;20.68;90.63;100981.34;5030560;28;20041;-61
2023/09/29 07:39:58;;;;;;;7.40;4.05;;;;;;;20.81;91.09;100984.25;5030516;28;20057;-61
2023/09/29 07:42:24;;;;;;;8.80;3.75;;;;;;;21.00;90.19;100981.59;5031241;28;20447;-60
2023/09/29 07:44:49;;;;;;;5.95;3.65;;;;;;;21.13;88.94;100985.38;5032701;28;20106;-64
2023/09/29 07:47:15;;;;;;;5.75;3.40;;;;;;;21.18;88.75;100981.59;5031728;28;20084;-65
2023/09/29 07:49:40;;;;;;;5.90;3.65;;;;;;;21.28;88.49;100982.00;5030752;28;20041;-65
2023/09/29 07:52:07;;;;;;;6.32;3.05;;;;;;;21.33;87.71;100982.63;5029279;28;20534;-64
2023/09/29 07:54:34;;;;;;;7.82;3.55;;;;;;;21.37;88.19;100984.19;5031922;28;20024;-64
2023/09/29 07:57:00;;;;;;;7.07;3.33;;;;;;;21.40;88.28;100983.16;5034391;28;20041;-61
2023/09/29 07:59:25;;;;;;;6.75;3.25;;;;;;;21.43;87.99;100989.13;5033181;28;20040;-61
2023/09/29 08:01:52;;;;;;;5.90;3.35;;;;;;;21.49;87.33;100986.16;5029319;28;20036;-60
2023/09/29 08:04:17;;;;;;;9.95;3.35;;;;;;;21.61;86.51;100976.88;5029585;28;20029;-60
2023/09/29 08:06:43;;;;;;;4.95;3.15;;;;;;;21.73;86.15;100970.97;5030031;28;20185;-60
2023/09/29 08:09:08;;;;;;;4.85;3.13;;;;;;;21.82;85.40;100980.19;5035931;28;20025;-61
2023/09/29 08:11:34;;;;;;;8.85;3.38;;;;;;;21.94;85.15;100971.66;5030572;28;20052;-61
2023/09/29 08:14:00;;;;;;;6.57;3.28;;;;;;;22.04;84.64;100970.25;5029459;28;20033;-61
2023/09/29 08:16:25;;;;;;;12.77;3.63;;;;;;;22.21;83.31;100970.19;5029743;28;20040;-61
2023/09/29 08:18:51;;;;;;;5.65;3.22;;;;;;;22.36;82.67;100967.59;5034718;28;20040;-61
2023/09/29 08:21:16;;;;;;;5.95;3.75;;;;;;;22.41;82.06;100963.91;5031449;28;20048;-61
2023/09/29 08:23:41;;;;;;;8.32;3.40;;;;;;;22.37;81.66;100963.19;5029552;28;20040;-61
2023/09/29 08:26:06;;;;;;;10.48;3.47;;;;;;;22.39;81.94;100963.97;5028706;28;20087;-60
2023/09/29 08:28:32;;;;;;;6.65;3.28;;;;;;;22.35;82.61;100972.97;5030843;28;20122;-61
2023/09/29 08:30:57;;;;;;;4.50;2.83;;;;;;;22.41;82.67;100991.13;5029601;28;20032;-61
2023/09/29 08:33:27;;;;;;;6.22;2.95;;;;;;;22.46;82.06;100985.59;5029800;28;20748;-61
2023/09/29 08:35:55;;;;;;;8.50;3.20;;;;;;;22.49;83.14;100995.94;5029417;28;20029;-61
2023/09/29 08:38:22;;;;;;;4.88;2.88;;;;;;;22.55;82.34;100995.63;5030320;28;20041;-60
2023/09/29 08:40:51;;;;;;;6.15;3.45;;;;;;;22.59;82.77;100995.38;5029394;28;20496;-61
2023/09/29 08:43:18;;;;;;;4.47;2.90;;;;;;;22.62;82.06;100991.75;5030585;28;20037;-61
2023/09/29 08:45:47;;;;;;;6.30;3.55;;;;;;;22.68;81.99;100986.13;5030761;28;20500;-61
2023/09/29 08:48:14;;;;;;;6.20;3.00;;;;;;;22.78;82.00;100990.81;5031881;28;20120;-61
2023/09/29 08:50:43;;;;;;;5.50;3.17;;;;;;;22.85;80.95;100988.69;5028152;28;20029;-61
2023/09/29 08:53:10;;;;;;;4.47;2.92;;;;;;;22.87;80.88;100987.66;5029681;28;20408;-61
2023/09/29 08:55:38;;;;;;;5.88;3.38;;;;;;;22.85;80.96;100983.41;5028147;28;20064;-62
2023/09/29 08:58:04;;;;;;;10.15;3.20;;;;;;;22.77;79.22;100968.00;5029586;28;20041;-64
2023/09/29 09:00:31;;;;;;;6.43;3.25;;;;;;;22.70;81.02;100981.63;5032535;28;20525;-65
2023/09/29 09:02:58;;;;;;;6.78;3.20;;;;;;;22.68;79.88;100970.31;5026437;28;20056;-65
2023/09/29 09:05:23;;;;;;;5.72;3.55;;;;;;;22.76;79.51;100968.09;5030430;28;20040;-65
2023/09/29 09:07:50;;;;;;;6.95;3.20;;;;;;;22.74;80.36;100976.06;5032128;28;20504;-65
2023/09/29 09:10:15;;;;;;;15.00;4.68;;;;;;;22.83;78.87;100970.31;5031124;28;20051;-69
2023/09/29 09:12:41;;;;;;;7.25;3.80;;;;;;;22.98;78.53;100962.50;5032485;28;20505;-68
2023/09/29 09:15:08;;;;;;;8.55;3.40;;;;;;;23.12;77.29;100950.22;5036724;28;20029;-70
2023/09/29 09:17:34;;;;;;;7.68;3.30;;;;;;;23.28;77.80;100952.84;5028159;28;20036;-69
2023/09/29 09:20:01;;;;;;;4.28;3.05;;;;;;;23.44;77.67;100945.75;5029415;28;20033;-69
2023/09/29 09:22:31;;;;;;;8.30;3.42;;;;;;;23.55;76.40;100938.03;5031713;28;20542;-69
2023/09/29 09:25:04;;;;;;;7.65;3.70;;;;;;;23.62;75.49;100941.16;5027529;28;20101;-69
2023/09/29 09:27:37;;;;;;;10.05;4.05;;;;;;;23.78;75.14;100950.72;5032147;28;20487;-69
2023/09/29 09:30:03;;;;;;;6.23;3.80;;;;;;;23.87;74.59;100938.75;5031701;28;20033;-68
2023/09/29 09:32:29;;;;;;;7.63;3.25;;;;;;;24.01;73.49;100924.75;5030249;28;20037;-68
2023/09/29 09:34:54;;;;;;;5.95;3.67;;;;;;;24.15;73.17;100928.25;5028814;28;20044;-69
2023/09/29 09:37:27;;;;;;;7.20;3.70;;;;;;;24.30;73.33;100944.94;5030173;28;20041;-69
2023/09/29 09:39:56;;;;;;;8.02;3.50;;;;;;;24.33;72.40;100947.38;5029438;28;20033;-68
2023/09/29 09:42:26;;;;;;;8.05;3.80;;;;;;;24.31;72.36;100952.75;5033549;28;20094;-68
2023/09/29 09:44:56;;;;;;;5.75;2.90;;;;;;;24.19;72.96;100960.59;5031616;28;20561;-69
2023/09/29 09:47:29;;;;;;;7.05;3.13;;;;;;;24.07;73.14;100971.91;5027232;28;20047;-68
2023/09/29 09:49:57;;;;;;;9.00;3.10;;;;;;;23.97;72.11;100961.06;5030543;28;20040;-69
2023/09/29 09:52:29;;;;;;;5.65;3.50;;;;;;;23.92;72.31;100966.59;5030557;28;20033;-69
2023/09/29 09:55:02;;;;;;;6.70;3.10;;;;;;;23.95;71.90;100962.94;5035775;28;20028;-68
2023/09/29 09:57:33;;;;;;;6.83;3.17;;;;;;;24.09;72.06;100965.59;5028763;28;20025;-69
2023/09/29 10:00:06;;;;;;;4.50;2.92;;;;;;;24.24;71.91;100969.94;5035690;28;20026;-69
2023/09/29 10:02:35;;;;;;;4.53;3.28;;;;;;;24.41;70.32;100942.47;5027184;28;20103;-69
2023/09/29 10:05:02;;;;;;;9.48;3.45;;;;;;;24.65;70.28;100945.34;5028269;28;20030;-64
2023/09/29 10:07:28;;;;;;;6.13;3.10;;;;;;;24.86;69.51;100939.56;5028380;28;20403;-64
2023/09/29 10:09:53;;;;;;;6.85;3.10;;;;;;;24.96;68.97;100937.19;5036051;28;20030;-64
2023/09/29 10:12:31;;;;;;;6.22;3.42;;;;;;;25.01;67.84;100933.28;5033381;28;20034;-64
2023/09/29 10:14:58;;;;;;;6.20;3.00;;;;;;;24.96;68.84;100956.56;5034009;28;20095;-64
2023/09/29 10:17:24;;;;;;;7.53;2.70;;;;;;;24.91;66.75;100926.88;5032830;28;20034;-64
2023/09/29 10:19:54;;;;;;;4.88;2.83;;;;;;;24.81;66.96;100935.53;5035939;28;20037;-64
2023/09/29 10:22:28;;;;;;;5.25;2.60;;;;;;;24.77;67.11;100953.38;5034719;28;20091;-64
2023/09/29 10:24:56;;;;;;;6.22;2.67;;;;;;;24.68;65.83;100937.22;5025686;28;20037;-63
2023/09/29 10:27:33;;;;;;;4.13;2.50;;;;;;;24.61;65.38;100943.88;5035476;28;20035;-64
2023/09/29 10:30:16;;;;;;;6.05;2.60;;;;;;;24.63;64.60;100919.03;5032180;28;20041;-63
2023/09/29 10:32:45;;;;;;;5.65;2.47;;;;;;;24.71;65.58;100959.06;5029878;28;20041;-63
2023/09/29 10:35:20;;;;;;;5.20;2.78;;;;;;;24.63;64.21;100936.69;5033728;28;20291;-64
2023/09/29 10:37:55;;;;;;;6.32;2.50;;;;;;;24.45;64.98;100951.91;5029426;28;20040;-63
2023/09/29 10:40:22;;;;;;;3.75;2.10;;;;;;;24.33;65.31;100963.22;5034680;28;20025;-63
2023/09/29 10:42:48;;;;;;;4.47;2.40;;;;;;;24.27;65.67;100976.81;5025868;28;20032;-63
2023/09/29 10:45:25;;;;;;;4.35;2.17;;;;;;;24.17;66.35;100986.25;5036831;28;20461;-64
2023/09/29 10:47:50;;;;;;;8.45;2.50;;;;;;;24.17;65.56;100989.75;5029003;28;20569;-64
2023/09/29 10:50:16;;;;;;;3.90;2.30;;;;;;;24.15;66.81;101012.75;5030069;28;20033;-62
2023/09/29 10:52:41;;;;;;;3.42;2.20;;;;;;;24.10;65.21;101000.78;5037590;28;20057;-69
2023/09/29 10:55:11;;;;;;;5.95;2.67;;;;;;;24.05;65.83;101008.09;5036325;28;20328;-69
2023/09/29 10:57:37;;;;;;;7.28;2.95;;;;;;;23.98;64.74;100992.66;5030373;28;20144;-69
2023/09/29 11:00:05;;;;;;;6.38;2.88;;;;;;;23.94;64.96;101003.44;5031419;28;20746;-64
2023/09/29 11:02:32;;;;;;;9.07;3.30;;;;;;;23.93;65.09;101004.38;5032268;28;20042;-62
2023/09/29 11:05:05;;;;;;;4.72;3.15;;;;;;;23.96;65.21;101007.72;5029467;28;20021;-69
2023/09/29 11:07:45;;;;;;;7.05;2.33;;;;;;;24.06;65.29;101013.31;5031433;28;20037;-69
2023/09/29 11:10:11;;;;;;;8.00;3.63;;;;;;;24.04;65.20;101030.19;5032451;28;20128;-60
2023/09/29 11:12:39;;;;;;;8.10;3.47;;;;;;;24.08;64.62;101018.50;5032511;28;20090;-68
2023/09/29 11:15:09;;;;;;;6.70;3.22;;;;;;;24.14;64.40;101024.25;5031553;28;20041;-63
2023/09/29 11:17:45;;;;;;;6.35;3.10;;;;;;;24.16;64.27;101030.31;5030332;28;20045;-63